createdAt,value
2022-08-19T00:11:58.914Z,33.9
2022-08-19T00:17:45.332Z,33.9
2022-08-19T00:23:06.605Z,33.9
2022-08-19T00:29:25.508Z,33.9
2022-08-19T00:34:46.536Z,33.8
2022-08-19T00:40:32.703Z,33.8
2022-08-19T00:51:08.686Z,33.8
2022-08-19T00:56:48.070Z,33.8
2022-08-19T01:02:50.749Z,33.8
2022-08-19T01:09:00.659Z,33.7
2022-08-19T01:14:55.395Z,33.7
2022-08-19T01:20:33.596Z,33.7
2022-08-19T01:26:36.587Z,33.6
2022-08-19T01:33:06.821Z,33.6
2022-08-19T01:38:49.157Z,33.6
2022-08-19T01:45:06.399Z,33.6
2022-08-19T01:50:47.105Z,33.6
2022-08-19T02:02:04.253Z,33.5
2022-08-19T02:07:49.176Z,33.5
2022-08-19T02:13:42.825Z,33.5
2022-08-19T02:19:19.591Z,33.4
2022-08-19T02:25:08.912Z,33.4
2022-08-19T02:30:47.567Z,33.4
2022-08-19T02:36:37.723Z,33.4
2022-08-19T02:42:29.429Z,33.4
2022-08-19T02:48:54.773Z,33.4
2022-08-19T02:54:35.259Z,33.3
2022-08-19T03:06:12.610Z,33.3
2022-08-19T03:11:57.195Z,33.3
2022-08-19T03:17:22.790Z,33.3
2022-08-19T03:23:00.935Z,33.3
2022-08-19T03:29:08.601Z,33.3
2022-08-19T03:41:24.463Z,33.2
2022-08-19T03:47:57.006Z,33.2
2022-08-19T03:53:43.382Z,33.1
2022-08-19T03:59:26.890Z,33.1
2022-08-19T04:05:29.713Z,33.1
2022-08-19T04:11:16.377Z,33.1
2022-08-19T04:16:51.809Z,33.1
2022-08-19T04:28:04.685Z,33.1
2022-08-19T04:33:47.553Z,33.1
2022-08-19T04:40:04.039Z,33
2022-08-19T04:46:00.784Z,33
2022-08-19T04:58:38.237Z,32.9
2022-08-19T05:04:03.470Z,32.9
2022-08-19T05:10:15.425Z,32.9
2022-08-19T05:15:56.358Z,32.9
2022-08-19T05:21:55.225Z,32.9
2022-08-19T05:27:48.549Z,32.9
2022-08-19T05:33:53.600Z,32.9
2022-08-19T05:39:39.604Z,32.9
2022-08-19T05:45:23.224Z,32.9
2022-08-19T05:51:06.731Z,32.9
2022-08-19T05:56:49.443Z,32.8
2022-08-19T06:02:27.965Z,32.9
2022-08-19T06:08:20.595Z,32.9
2022-08-19T06:14:33.497Z,32.9
2022-08-19T06:20:34.511Z,32.9
2022-08-19T06:26:26.393Z,32.9
2022-08-19T06:32:27.666Z,35.4
2022-08-19T06:38:05.973Z,36.8
2022-08-19T06:44:02.351Z,35.8
2022-08-19T06:50:08.079Z,35.2
2022-08-19T06:56:35.687Z,42.2
2022-08-19T07:02:15.026Z,41.6
2022-08-19T07:09:03.942Z,42.1
2022-08-19T07:15:11.073Z,42.7
2022-08-19T07:21:17.925Z,43.2
2022-08-19T07:27:34.117Z,43.7
2022-08-19T07:33:53.279Z,44.3
2022-08-19T07:39:34.299Z,44.9
2022-08-19T07:45:22.909Z,45.4
2022-08-19T07:51:36.010Z,46
2022-08-19T07:57:51.106Z,46.6
2022-08-19T08:03:39.090Z,47.2
2022-08-19T08:09:40.501Z,47.8
2022-08-19T08:16:35.142Z,48.3
2022-08-19T08:23:06.713Z,49
2022-08-19T08:29:10.862Z,49.5
2022-08-19T08:35:13.465Z,50
2022-08-19T08:40:58.409Z,50.4
2022-08-19T08:47:20.039Z,50.8
2022-08-19T08:53:08.389Z,51.2
2022-08-19T08:59:11.112Z,51.4
2022-08-19T09:04:57.920Z,51.7
2022-08-19T09:11:59.968Z,52.1
2022-08-19T09:18:35.742Z,52.5
2022-08-19T09:24:47.509Z,52.7
2022-08-19T09:31:25.837Z,53.1
2022-08-19T09:38:00.188Z,53.4
2022-08-19T09:44:18.090Z,53.7
2022-08-19T09:49:46.473Z,54
2022-08-19T09:55:57.116Z,54.2
2022-08-19T10:01:41.117Z,54.5
2022-08-19T10:08:20.949Z,54.8
2022-08-19T10:15:03.266Z,55.1
2022-08-19T10:21:50.626Z,55.3
2022-08-19T10:27:33.647Z,55.5
2022-08-19T10:34:47.983Z,55.5
2022-08-19T10:41:12.066Z,55.8
2022-08-19T10:53:08.017Z,56.1
2022-08-19T10:59:36.081Z,56.3
2022-08-19T11:05:29.125Z,56.4
2022-08-19T11:11:23.532Z,56.6
2022-08-19T11:17:11.270Z,56.8
2022-08-19T11:22:58.030Z,56.9
2022-08-19T11:28:35.540Z,57.1
2022-08-19T11:34:20.652Z,57.1
2022-08-19T11:39:57.685Z,57.1
2022-08-19T11:45:35.385Z,57.3
2022-08-19T11:51:25.431Z,57.3
2022-08-19T11:57:07.078Z,57.4
2022-08-19T12:02:54.997Z,57.4
2022-08-19T12:08:36.715Z,57.4
2022-08-19T12:14:31.303Z,57.4
2022-08-19T12:20:00.545Z,57.4
2022-08-19T12:25:40.310Z,57.5
2022-08-19T12:31:37.377Z,57.6
2022-08-19T12:37:17.026Z,57.5
2022-08-19T12:43:07.622Z,57.3
2022-08-19T12:50:09.070Z,57.1
2022-08-19T12:55:51.292Z,57.1
2022-08-19T13:01:23.072Z,57.1
2022-08-19T13:07:08.224Z,57
2022-08-19T13:12:45.604Z,56.9
2022-08-19T13:18:34.631Z,56.8
2022-08-19T13:24:24.583Z,56.6
2022-08-19T13:30:16.015Z,56.4
2022-08-19T13:36:05.676Z,56.3
2022-08-19T13:41:47.937Z,56
2022-08-19T13:47:35.466Z,55.9
2022-08-19T13:53:20.460Z,55.6
2022-08-19T13:59:09.613Z,55.3
2022-08-19T14:04:48.063Z,55.1
2022-08-19T14:10:25.024Z,54.8
2022-08-19T14:16:10.811Z,54.6
2022-08-19T14:21:58.249Z,54.2
2022-08-19T14:27:43.273Z,53.8
2022-08-19T14:33:27.500Z,53.5
2022-08-19T14:39:20.894Z,53.2
2022-08-19T14:44:43.153Z,52.9
2022-08-19T14:50:44.514Z,52.6
2022-08-19T14:56:30.275Z,52.3
2022-08-19T15:08:25.296Z,51.5
2022-08-19T15:14:17.846Z,51.2
2022-08-19T15:19:58.899Z,50.8
2022-08-19T15:31:25.670Z,49.9
2022-08-19T15:37:08.433Z,49.6
2022-08-19T15:42:46.776Z,49.2
2022-08-19T15:48:28.807Z,48.8
2022-08-19T15:54:23.966Z,48.3
2022-08-19T16:00:53.411Z,47.9
2022-08-19T16:06:59.116Z,47.5
2022-08-19T16:13:19.960Z,47.1
2022-08-19T16:19:03.016Z,46.8
2022-08-19T16:24:43.911Z,46.4
2022-08-19T16:30:48.459Z,46.1
2022-08-19T16:36:34.783Z,45.7
2022-08-19T16:42:12.578Z,45.3
2022-08-19T16:47:48.316Z,45
2022-08-19T16:54:11.884Z,44.6
2022-08-19T17:00:04.879Z,44.3
2022-08-19T17:05:48.768Z,43.8
2022-08-19T17:12:05.803Z,43.4
2022-08-19T17:17:51.562Z,43.1
2022-08-19T17:23:36.765Z,42.8
2022-08-19T17:29:06.311Z,42.4
2022-08-19T17:34:56.153Z,42.1
2022-08-19T17:40:40.135Z,40.8
2022-08-19T17:46:34.892Z,39.6
2022-08-19T17:52:17.808Z,38.7
2022-08-19T17:58:03.396Z,38.2
2022-08-19T18:04:09.973Z,37.7
2022-08-19T18:09:59.214Z,37.4
2022-08-19T18:15:46.129Z,37.1
2022-08-19T18:27:41.779Z,36.8
2022-08-19T18:33:25.063Z,36.6
2022-08-19T18:44:32.378Z,36.4
2022-08-19T18:50:39.627Z,36.4
2022-08-19T18:56:17.011Z,36.3
2022-08-19T19:01:56.280Z,36.3
2022-08-19T19:07:35.630Z,36.3
2022-08-19T19:13:14.258Z,36.2
2022-08-19T19:18:59.519Z,36.1
2022-08-19T19:24:53.288Z,36.1
2022-08-19T19:30:59.105Z,36.1
2022-08-19T19:36:58.051Z,36.1
2022-08-19T19:48:43.875Z,36
2022-08-19T19:55:04.215Z,36
2022-08-19T20:00:41.160Z,35.9
2022-08-19T20:06:32.412Z,35.9
2022-08-19T20:12:18.376Z,35.9
2022-08-19T20:23:06.606Z,35.8
2022-08-19T20:29:56.599Z,35.8
2022-08-19T20:35:59.528Z,35.8
2022-08-19T20:41:43.383Z,35.8
2022-08-19T20:47:44.033Z,35.7
2022-08-19T20:53:26.631Z,35.6
2022-08-19T20:59:11.952Z,35.6
2022-08-19T21:04:50.396Z,35.6
2022-08-19T21:10:58.767Z,35.6
2022-08-19T21:16:43.654Z,35.6
2022-08-19T21:22:25.498Z,35.5
2022-08-19T21:34:04.676Z,35.4
2022-08-19T21:39:53.964Z,35.4
2022-08-19T21:50:50.200Z,35.4
2022-08-19T21:56:34.088Z,35.4
2022-08-19T22:02:35.942Z,35.3
2022-08-19T22:07:58.053Z,35.3
2022-08-19T22:13:41.440Z,35.3
2022-08-19T22:19:20.358Z,35.3
2022-08-19T22:25:25.770Z,35.2
2022-08-19T22:31:23.988Z,35.2
2022-08-19T22:37:14.195Z,35.1
2022-08-19T22:42:23.033Z,35.1
2022-08-19T22:48:02.453Z,35.1
2022-08-19T22:53:41.372Z,35.1
2022-08-19T22:59:23.178Z,35.1
2022-08-19T23:05:20.835Z,35
2022-08-19T23:11:16.192Z,35
2022-08-19T23:16:58.816Z,35
2022-08-19T23:28:12.371Z,34.9
2022-08-19T23:34:08.118Z,34.9
2022-08-19T23:39:47.115Z,34.9
2022-08-19T23:45:50.937Z,34.8
2022-08-19T23:51:27.258Z,34.8
2022-08-19T23:57:30.865Z,34.8
